Terminal Aerodrome Forecast
Issued by NWS

Home | Current Version | Previous Version | Text Only | Print | Product List | Glossary On
Versions: 1 2 3 4 5 6 7 8 9 10 11 12 13 14
000
FTUS46 KPDT 050534
TAFDLS
TAF
KDLS 050534Z 0506/0606 33010KT P6SM SCT050
     FM051200 30010KT P6SM SCT250
     FM052000 30012KT P6SM SCT050 SCT250=

USA.gov is the U.S. government's official web portal to all federal, state and local government web resources and services.